Time;durP1;ratioP1;P1;durP2;ratioP2;P2;SDS_P1;SDS_P2;PMS_P1;PMS_P2;Temp;Humidity;BMP_temperature;BMP_pressure;BME280_temperature;BME280_humidity;BME280_pressure;Samples;Min_cycle;Max_cycle;Signal;HPM_P1;HPM_P2
2023/03/25 00:00:48;;;;;;;23.30;4.30;;;;;;;;;;4924143;29;19968;-75
2023/03/25 00:03:14;;;;;;;21.17;3.85;;;;;;;;;;4923551;29;20048;-76
2023/03/25 00:05:40;;;;;;;21.15;3.92;;;;;;;;;;4914053;29;20133;-75
2023/03/25 00:08:06;;;;;;;27.02;4.25;;;;;;;;;;4928322;29;20027;-76
2023/03/25 00:10:32;;;;;;;22.13;3.00;;;;;;;;;;4932059;29;20092;-75
2023/03/25 00:13:03;;;;;;;21.45;3.78;;;;;;;;;;4916803;29;20110;-76
2023/03/25 00:15:32;;;;;;;23.95;4.38;;;;;;;;;;4925184;29;20079;-76
2023/03/25 00:17:58;;;;;;;25.80;4.53;;;;;;;;;;4935669;29;20034;-76
2023/03/25 00:20:26;;;;;;;27.25;4.30;;;;;;;;;;4930083;29;20388;-73
2023/03/25 00:22:53;;;;;;;27.48;4.00;;;;;;;;;;4933221;29;20046;-73
2023/03/25 00:25:19;;;;;;;21.20;4.05;;;;;;;;;;4927998;29;20054;-72
2023/03/25 00:27:47;;;;;;;30.48;4.65;;;;;;;;;;4922573;29;20408;-73
2023/03/25 00:30:17;;;;;;;23.30;4.05;;;;;;;;;;4924169;29;20028;-74
2023/03/25 00:32:52;;;;;;;36.25;5.20;;;;;;;;;;4914589;29;20028;-75
2023/03/25 00:35:19;;;;;;;30.05;4.38;;;;;;;;;;4933536;28;20103;-74
2023/03/25 00:37:46;;;;;;;24.55;3.47;;;;;;;;;;4918066;29;20075;-74
2023/03/25 00:40:13;;;;;;;32.25;5.18;;;;;;;;;;4930229;29;20039;-74
2023/03/25 00:42:43;;;;;;;32.05;4.68;;;;;;;;;;4933396;29;20054;-75
2023/03/25 00:45:11;;;;;;;26.80;4.00;;;;;;;;;;4929720;29;20063;-75
2023/03/25 00:47:37;;;;;;;34.83;5.20;;;;;;;;;;4918098;29;20401;-74
2023/03/25 00:50:04;;;;;;;35.90;4.72;;;;;;;;;;4930035;29;20463;-74
2023/03/25 00:52:31;;;;;;;31.65;4.80;;;;;;;;;;4921124;29;20020;-74
2023/03/25 00:54:57;;;;;;;38.20;5.05;;;;;;;;;;4927684;29;20056;-75
2023/03/25 00:57:23;;;;;;;34.60;4.75;;;;;;;;;;4924551;29;20032;-75
2023/03/25 00:59:49;;;;;;;37.08;5.38;;;;;;;;;;4914674;29;20369;-74
2023/03/25 01:02:20;;;;;;;28.25;3.22;;;;;;;;;;4917855;29;20481;-75
2023/03/25 01:15:03;;;;;;;;;;;;;;;;;;;;;
2023/03/25 01:17:35;;;;;;;31.08;5.40;;;;;;;;;;4914097;29;20051;-74
2023/03/25 01:20:10;;;;;;;32.50;5.05;;;;;;;;;;4918133;29;20480;-74
2023/03/25 01:22:54;;;;;;;29.27;4.45;;;;;;;;;;4930322;29;20453;-74
2023/03/25 01:25:20;;;;;;;29.77;4.65;;;;;;;;;;4924315;29;20035;-74
2023/03/25 01:27:46;;;;;;;31.13;5.10;;;;;;;;;;4911900;29;20426;-74
2023/03/25 01:30:13;;;;;;;33.22;5.57;;;;;;;;;;4914919;29;20483;-74
2023/03/25 01:32:42;;;;;;;39.67;6.53;;;;;;;;;;4914465;29;20035;-73
2023/03/25 01:35:11;;;;;;;28.70;4.45;;;;;;;;;;4930566;29;20031;-74
2023/03/25 01:37:43;;;;;;;30.90;5.65;;;;;;;;;;4922994;29;20031;-74
2023/03/25 01:40:16;;;;;;;31.50;4.23;;;;;;;;;;4912518;29;20052;-74
2023/03/25 01:42:49;;;;;;;40.78;7.15;;;;;;;;;;4931514;29;20456;-74
2023/03/25 01:45:20;;;;;;;35.10;5.78;;;;;;;;;;4928568;29;20029;-74
2023/03/25 01:47:49;;;;;;;24.23;4.47;;;;;;;;;;4914012;29;20035;-74
2023/03/25 01:50:17;;;;;;;26.52;4.95;;;;;;;;;;4929987;29;20182;-73
2023/03/25 01:52:45;;;;;;;29.23;5.40;;;;;;;;;;4931524;29;20028;-73
2023/03/25 01:55:11;;;;;;;40.53;6.40;;;;;;;;;;4932156;29;20147;-73
2023/03/25 01:57:42;;;;;;;32.70;6.15;;;;;;;;;;4914538;29;20044;-74
2023/03/25 02:00:13;;;;;;;32.30;4.75;;;;;;;;;;4922738;29;20042;-75
2023/03/25 02:02:49;;;;;;;33.30;5.60;;;;;;;;;;4920646;28;20166;-73
2023/03/25 02:05:21;;;;;;;38.63;6.57;;;;;;;;;;4932286;29;20509;-73
2023/03/25 02:07:51;;;;;;;34.80;6.93;;;;;;;;;;4920363;29;20031;-74
2023/03/25 02:10:20;;;;;;;34.33;6.63;;;;;;;;;;4929958;29;20040;-75
2023/03/25 02:12:46;;;;;;;40.05;7.72;;;;;;;;;;4929466;29;20042;-74
2023/03/25 02:15:19;;;;;;;36.92;5.90;;;;;;;;;;4935606;29;20114;-73
2023/03/25 02:17:51;;;;;;;30.23;4.47;;;;;;;;;;4917472;29;20401;-73
2023/03/25 02:20:21;;;;;;;45.10;8.15;;;;;;;;;;4932808;29;20099;-73
2023/03/25 02:22:55;;;;;;;28.02;5.07;;;;;;;;;;4931652;29;20032;-73
2023/03/25 02:25:44;;;;;;;38.63;7.97;;;;;;;;;;4932870;29;20036;-73
2023/03/25 02:28:24;;;;;;;33.15;6.28;;;;;;;;;;4933612;29;20030;-74
2023/03/25 02:30:53;;;;;;;36.75;5.22;;;;;;;;;;4945820;28;20386;-74
2023/03/25 02:33:36;;;;;;;40.25;5.25;;;;;;;;;;4935536;29;20024;-74
2023/03/25 02:36:05;;;;;;;42.13;5.50;;;;;;;;;;4934159;29;20032;-73
2023/03/25 02:38:52;;;;;;;32.38;5.85;;;;;;;;;;4931222;29;20051;-73
2023/03/25 02:41:25;;;;;;;36.00;5.43;;;;;;;;;;4927431;29;20041;-73
2023/03/25 02:43:55;;;;;;;29.42;5.20;;;;;;;;;;4925496;29;20028;-74
2023/03/25 02:46:22;;;;;;;29.98;5.18;;;;;;;;;;4924452;29;20453;-74
2023/03/25 02:48:54;;;;;;;30.63;5.10;;;;;;;;;;4935357;29;20035;-74
2023/03/25 02:51:24;;;;;;;38.50;6.80;;;;;;;;;;4928520;29;20536;-74
2023/03/25 02:53:50;;;;;;;39.13;6.40;;;;;;;;;;4927265;29;20032;-74
2023/03/25 02:56:21;;;;;;;34.90;5.13;;;;;;;;;;4920384;29;20492;-74
2023/03/25 02:58:48;;;;;;;27.63;4.13;;;;;;;;;;4927043;29;20111;-74
2023/03/25 03:01:14;;;;;;;37.65;5.18;;;;;;;;;;4927276;29;20405;-74
2023/03/25 03:03:40;;;;;;;34.65;5.72;;;;;;;;;;4926237;29;20468;-74
2023/03/25 03:06:08;;;;;;;33.97;5.75;;;;;;;;;;4925312;29;20024;-75
2023/03/25 03:09:00;;;;;;;36.72;5.10;;;;;;;;;;4923433;29;20355;-75
2023/03/25 03:11:33;;;;;;;25.92;5.38;;;;;;;;;;4922143;29;20055;-75
2023/03/25 03:14:04;;;;;;;38.28;5.75;;;;;;;;;;4916557;29;20040;-74
2023/03/25 03:16:54;;;;;;;29.95;4.28;;;;;;;;;;4923853;29;20063;-74
2023/03/25 03:19:22;;;;;;;40.70;6.78;;;;;;;;;;4915860;29;20060;-74
2023/03/25 03:22:03;;;;;;;35.13;5.45;;;;;;;;;;4929332;29;20035;-73
2023/03/25 03:24:32;;;;;;;30.35;4.75;;;;;;;;;;4934988;29;20020;-73
2023/03/25 03:27:08;;;;;;;27.98;5.20;;;;;;;;;;4931335;29;20028;-74
2023/03/25 03:29:43;;;;;;;44.70;6.88;;;;;;;;;;4929938;29;20039;-73
2023/03/25 03:32:17;;;;;;;34.70;5.13;;;;;;;;;;4928757;29;20172;-73
2023/03/25 03:34:43;;;;;;;35.50;5.30;;;;;;;;;;4934662;29;20023;-74
2023/03/25 03:37:11;;;;;;;28.38;5.13;;;;;;;;;;4929333;29;20472;-73
2023/03/25 03:39:38;;;;;;;40.72;7.60;;;;;;;;;;4931363;29;20031;-73
2023/03/25 03:42:13;;;;;;;47.50;6.28;;;;;;;;;;4927015;29;20095;-74
2023/03/25 03:44:44;;;;;;;36.30;5.50;;;;;;;;;;4915567;29;20024;-73
2023/03/25 03:47:19;;;;;;;43.45;6.25;;;;;;;;;;4935128;29;20071;-74
2023/03/25 03:49:47;;;;;;;30.83;4.22;;;;;;;;;;4932633;29;20032;-73
2023/03/25 03:52:21;;;;;;;45.05;5.03;;;;;;;;;;4915738;29;20016;-73
2023/03/25 03:54:57;;;;;;;39.42;5.80;;;;;;;;;;4928448;29;20059;-72
2023/03/25 03:57:23;;;;;;;43.08;7.25;;;;;;;;;;4929362;29;20023;-74
2023/03/25 03:59:49;;;;;;;30.52;4.95;;;;;;;;;;4914993;29;20060;-74
2023/03/25 04:02:37;;;;;;;28.70;4.38;;;;;;;;;;4929974;29;20060;-73
2023/03/25 04:05:04;;;;;;;33.63;6.32;;;;;;;;;;4915652;29;20024;-75
2023/03/25 04:07:40;;;;;;;80.93;33.95;;;;;;;;;;4904865;29;20035;-77
2023/03/25 04:10:28;;;;;;;43.50;10.68;;;;;;;;;;4928142;29;20032;-77
2023/03/25 04:13:01;;;;;;;26.27;5.20;;;;;;;;;;4917060;29;20440;-78
2023/03/25 04:15:27;;;;;;;38.65;5.28;;;;;;;;;;4921315;29;20448;-74
2023/03/25 04:17:53;;;;;;;29.65;5.00;;;;;;;;;;4927117;29;20558;-74
2023/03/25 04:20:22;;;;;;;29.98;4.88;;;;;;;;;;4948937;28;20055;-76
2023/03/25 04:22:50;;;;;;;34.92;5.72;;;;;;;;;;4928863;29;20034;-75
2023/03/25 04:25:17;;;;;;;34.33;5.78;;;;;;;;;;4931475;29;20030;-75
2023/03/25 04:27:57;;;;;;;26.90;6.10;;;;;;;;;;4923731;29;20032;-75
2023/03/25 04:30:24;;;;;;;31.45;5.78;;;;;;;;;;4913790;29;20463;-75
2023/03/25 04:32:54;;;;;;;32.85;6.50;;;;;;;;;;4926486;29;20065;-74
2023/03/25 04:35:24;;;;;;;30.20;5.28;;;;;;;;;;4931128;29;20027;-75
2023/03/25 04:37:56;;;;;;;30.05;5.47;;;;;;;;;;4912341;29;20115;-74
2023/03/25 04:40:27;;;;;;;33.78;5.05;;;;;;;;;;4914862;29;20040;-75
2023/03/25 04:42:56;;;;;;;36.57;5.87;;;;;;;;;;4916869;29;20032;-75
2023/03/25 04:45:24;;;;;;;32.58;6.30;;;;;;;;;;4923969;29;20384;-76
2023/03/25 04:47:52;;;;;;;40.05;6.80;;;;;;;;;;4915831;29;20032;-76
2023/03/25 04:50:23;;;;;;;46.30;12.70;;;;;;;;;;4927252;29;20027;-76
2023/03/25 04:52:49;;;;;;;29.75;6.25;;;;;;;;;;4931016;29;20020;-76
2023/03/25 04:55:18;;;;;;;50.20;7.25;;;;;;;;;;4926470;29;20119;-75
2023/03/25 04:57:48;;;;;;;34.97;6.22;;;;;;;;;;4931625;29;20020;-75
2023/03/25 05:00:16;;;;;;;33.42;6.28;;;;;;;;;;4933119;29;20039;-75
2023/03/25 05:02:47;;;;;;;38.03;6.00;;;;;;;;;;4932505;29;20055;-75
2023/03/25 05:05:17;;;;;;;37.33;6.38;;;;;;;;;;4923060;29;20467;-75
2023/03/25 05:07:48;;;;;;;36.15;6.70;;;;;;;;;;4930565;29;20055;-75
2023/03/25 05:10:15;;;;;;;33.95;6.03;;;;;;;;;;4927376;29;20047;-75
2023/03/25 05:12:41;;;;;;;41.85;6.22;;;;;;;;;;4919825;29;20024;-74
2023/03/25 05:15:07;;;;;;;38.08;6.35;;;;;;;;;;4913808;29;20035;-75
2023/03/25 05:17:34;;;;;;;50.90;6.75;;;;;;;;;;4925105;29;20027;-75
2023/03/25 05:20:01;;;;;;;35.08;5.95;;;;;;;;;;4924485;29;20507;-74
2023/03/25 05:22:27;;;;;;;47.75;6.53;;;;;;;;;;4910975;29;20083;-74
2023/03/25 05:24:55;;;;;;;32.75;5.18;;;;;;;;;;4913722;29;20020;-75
2023/03/25 05:27:21;;;;;;;38.25;6.60;;;;;;;;;;4928142;29;20054;-75
2023/03/25 05:29:47;;;;;;;40.03;7.13;;;;;;;;;;4929006;29;20388;-74
2023/03/25 05:32:16;;;;;;;47.30;7.63;;;;;;;;;;4926571;29;20020;-73
2023/03/25 05:34:45;;;;;;;44.45;6.05;;;;;;;;;;4912659;29;20028;-73
2023/03/25 05:37:12;;;;;;;37.08;5.90;;;;;;;;;;4918608;29;20136;-74
2023/03/25 05:39:38;;;;;;;46.05;7.18;;;;;;;;;;4916997;29;20024;-74
2023/03/25 05:42:04;;;;;;;39.13;7.32;;;;;;;;;;4919526;29;20024;-74
2023/03/25 05:44:30;;;;;;;40.15;5.72;;;;;;;;;;4930569;29;20027;-74
2023/03/25 05:47:00;;;;;;;38.67;6.07;;;;;;;;;;4936799;29;20032;-74
2023/03/25 05:49:26;;;;;;;35.67;5.80;;;;;;;;;;4917420;29;20406;-74
2023/03/25 05:51:53;;;;;;;30.75;5.63;;;;;;;;;;4923785;29;20032;-75
2023/03/25 05:54:19;;;;;;;35.63;6.30;;;;;;;;;;4933501;29;20146;-73
2023/03/25 05:56:45;;;;;;;39.25;6.18;;;;;;;;;;4935525;29;20016;-74
2023/03/25 05:59:13;;;;;;;34.08;7.45;;;;;;;;;;4916021;29;20104;-74
2023/03/25 06:01:44;;;;;;;31.05;5.80;;;;;;;;;;4945442;29;20086;-74
2023/03/25 06:04:15;;;;;;;39.30;5.67;;;;;;;;;;4924097;29;20030;-75
2023/03/25 06:06:41;;;;;;;40.45;6.93;;;;;;;;;;4936236;29;20118;-74
2023/03/25 06:09:08;;;;;;;37.65;5.80;;;;;;;;;;4919471;29;20036;-75
2023/03/25 06:11:36;;;;;;;33.22;7.10;;;;;;;;;;4939402;29;20078;-74
2023/03/25 06:14:03;;;;;;;32.45;4.95;;;;;;;;;;4935544;29;20364;-74
2023/03/25 06:16:30;;;;;;;26.05;4.95;;;;;;;;;;4931117;29;20023;-73
2023/03/25 06:19:00;;;;;;;35.10;5.05;;;;;;;;;;4934230;29;20042;-74
2023/03/25 06:21:31;;;;;;;33.17;6.22;;;;;;;;;;4916479;29;20060;-73
2023/03/25 06:23:58;;;;;;;30.50;6.15;;;;;;;;;;4931723;29;20058;-73
2023/03/25 06:26:25;;;;;;;24.20;4.50;;;;;;;;;;4931069;29;20031;-74
2023/03/25 06:28:51;;;;;;;31.13;5.07;;;;;;;;;;4933413;29;20040;-74
2023/03/25 06:31:19;;;;;;;29.88;5.75;;;;;;;;;;4944818;29;20796;-73
2023/03/25 06:33:45;;;;;;;23.42;4.47;;;;;;;;;;4928718;29;20028;-74
2023/03/25 06:36:12;;;;;;;38.25;5.25;;;;;;;;;;4919687;29;20024;-74
2023/03/25 06:38:39;;;;;;;32.60;6.03;;;;;;;;;;4935116;29;20485;-74
2023/03/25 06:41:06;;;;;;;29.10;4.43;;;;;;;;;;4927099;29;20024;-74
2023/03/25 06:43:32;;;;;;;23.85;4.55;;;;;;;;;;4926029;29;20028;-74
2023/03/25 06:45:58;;;;;;;30.08;5.78;;;;;;;;;;4942506;29;20027;-74
2023/03/25 06:48:25;;;;;;;19.65;3.25;;;;;;;;;;4930470;28;20457;-74
2023/03/25 06:50:52;;;;;;;25.85;5.45;;;;;;;;;;4950786;29;20019;-74
2023/03/25 06:53:18;;;;;;;26.73;3.92;;;;;;;;;;4934722;29;20028;-73
2023/03/25 06:55:44;;;;;;;29.00;5.57;;;;;;;;;;4933772;29;20034;-74
2023/03/25 06:58:11;;;;;;;28.00;4.35;;;;;;;;;;4920332;29;20031;-75
2023/03/25 07:00:37;;;;;;;25.08;4.05;;;;;;;;;;4933372;29;20560;-73
2023/03/25 07:03:04;;;;;;;29.40;6.00;;;;;;;;;;4928964;29;20031;-74
2023/03/25 07:05:30;;;;;;;34.15;5.53;;;;;;;;;;4932193;29;20115;-74
2023/03/25 07:07:57;;;;;;;26.35;5.57;;;;;;;;;;4932195;29;20043;-74
2023/03/25 07:10:23;;;;;;;29.85;4.47;;;;;;;;;;4929601;29;20101;-74
2023/03/25 07:12:49;;;;;;;28.10;4.90;;;;;;;;;;4930350;29;20492;-74
2023/03/25 07:15:15;;;;;;;27.48;4.45;;;;;;;;;;4943188;29;20035;-74
2023/03/25 07:17:41;;;;;;;25.52;4.60;;;;;;;;;;4946577;29;20027;-74
2023/03/25 07:20:08;;;;;;;24.73;4.07;;;;;;;;;;4915433;29;20158;-74
2023/03/25 07:22:34;;;;;;;17.73;3.47;;;;;;;;;;4925848;29;20895;-75
2023/03/25 07:25:00;;;;;;;28.98;5.20;;;;;;;;;;4943238;29;20164;-73
2023/03/25 07:27:27;;;;;;;23.10;4.63;;;;;;;;;;4933872;29;20121;-73
2023/03/25 07:29:53;;;;;;;19.60;4.00;;;;;;;;;;4916842;29;20043;-74
2023/03/25 07:32:19;;;;;;;23.35;3.88;;;;;;;;;;4928077;29;20031;-74
2023/03/25 07:34:45;;;;;;;28.60;5.38;;;;;;;;;;4930110;29;20031;-75
2023/03/25 07:37:11;;;;;;;21.83;4.20;;;;;;;;;;4920021;29;20032;-75
2023/03/25 07:39:37;;;;;;;27.88;4.78;;;;;;;;;;4927476;29;20044;-74
2023/03/25 07:42:05;;;;;;;32.92;9.38;;;;;;;;;;4934197;29;20039;-76
2023/03/25 07:44:31;;;;;;;19.92;4.20;;;;;;;;;;4928746;29;20024;-75
2023/03/25 07:46:57;;;;;;;23.00;4.80;;;;;;;;;;4934250;29;20130;-76
2023/03/25 07:49:24;;;;;;;20.15;3.58;;;;;;;;;;4934099;29;20552;-76
2023/03/25 07:51:50;;;;;;;23.25;4.80;;;;;;;;;;4933321;29;20043;-75
2023/03/25 07:54:16;;;;;;;23.17;4.70;;;;;;;;;;4906358;29;20039;-74
2023/03/25 07:56:42;;;;;;;23.05;5.03;;;;;;;;;;4926403;29;20480;-75
2023/03/25 07:59:08;;;;;;;26.95;3.95;;;;;;;;;;4922934;29;20035;-77
2023/03/25 08:01:35;;;;;;;22.38;4.85;;;;;;;;;;4927550;29;20034;-77
2023/03/25 08:04:01;;;;;;;23.50;4.03;;;;;;;;;;4922455;29;20028;-76
2023/03/25 08:06:27;;;;;;;30.27;4.55;;;;;;;;;;4941740;29;20039;-73
2023/03/25 08:09:06;;;;;;;25.50;4.93;;;;;;;;;;4922774;29;20035;-76
2023/03/25 08:11:35;;;;;;;24.60;4.40;;;;;;;;;;4930492;29;20032;-76
2023/03/25 08:14:03;;;;;;;23.98;5.00;;;;;;;;;;4912703;29;20055;-75
2023/03/25 08:16:30;;;;;;;23.98;4.20;;;;;;;;;;4893505;29;20056;-73
2023/03/25 08:18:56;;;;;;;27.65;4.90;;;;;;;;;;4874098;29;20059;-75
2023/03/25 08:21:24;;;;;;;25.17;5.47;;;;;;;;;;4908504;29;20421;-75
2023/03/25 08:23:57;;;;;;;25.45;4.88;;;;;;;;;;4904498;29;20494;-76
2023/03/25 08:26:25;;;;;;;24.02;5.68;;;;;;;;;;4892243;29;20036;-77
2023/03/25 08:29:08;;;;;;;28.05;5.55;;;;;;;;;;4873203;29;20029;-76
2023/03/25 08:31:37;;;;;;;20.15;4.03;;;;;;;;;;4894285;29;20466;-75
2023/03/25 08:34:04;;;;;;;24.95;3.95;;;;;;;;;;4888384;29;20049;-74
2023/03/25 08:36:30;;;;;;;19.67;3.75;;;;;;;;;;4895316;29;20020;-75
2023/03/25 08:38:57;;;;;;;20.05;4.00;;;;;;;;;;4902199;29;20041;-74
2023/03/25 08:41:23;;;;;;;22.58;4.45;;;;;;;;;;4886292;29;20039;-75
2023/03/25 08:43:50;;;;;;;21.15;3.78;;;;;;;;;;4886600;29;20025;-75
2023/03/25 08:49:14;;;;;;;18.48;3.58;;;;;;;;;;4894952;29;20039;-76
2023/03/25 08:51:40;;;;;;;31.27;3.90;;;;;;;;;;4886458;29;20036;-75
2023/03/25 08:54:07;;;;;;;22.98;5.10;;;;;;;;;;4884760;29;20538;-81
2023/03/25 08:56:37;;;;;;;19.17;2.92;;;;;;;;;;4868019;29;20092;-75
2023/03/25 09:02:27;;;;;;;27.50;4.22;;;;;;;;;;4900262;29;20367;-76
2023/03/25 09:04:54;;;;;;;26.15;3.78;;;;;;;;;;4883947;29;20044;-78
2023/03/25 09:07:22;;;;;;;22.58;3.53;;;;;;;;;;4884476;29;20447;-75
2023/03/25 09:09:49;;;;;;;20.38;3.92;;;;;;;;;;4873575;28;20051;-78
2023/03/25 09:12:18;;;;;;;15.70;3.30;;;;;;;;;;4892098;29;20088;-74
2023/03/25 09:14:44;;;;;;;24.67;3.75;;;;;;;;;;4882564;29;20035;-73
2023/03/25 09:17:10;;;;;;;25.83;4.25;;;;;;;;;;4882112;29;20037;-72
2023/03/25 09:19:37;;;;;;;21.08;4.68;;;;;;;;;;4881559;29;20040;-74
2023/03/25 09:22:03;;;;;;;23.50;4.57;;;;;;;;;;4890946;29;20075;-74
2023/03/25 09:24:32;;;;;;;17.75;2.85;;;;;;;;;;4883598;29;20036;-74
2023/03/25 09:26:59;;;;;;;22.30;3.78;;;;;;;;;;4895693;29;20041;-74
2023/03/25 09:29:32;;;;;;;19.42;2.90;;;;;;;;;;4884989;29;20037;-77
2023/03/25 09:32:03;;;;;;;18.05;2.55;;;;;;;;;;4880802;29;20052;-76
2023/03/25 09:34:29;;;;;;;22.60;4.22;;;;;;;;;;4882439;29;20024;-75
2023/03/25 09:36:56;;;;;;;20.20;3.75;;;;;;;;;;4882833;29;20080;-75
2023/03/25 09:39:22;;;;;;;28.40;3.95;;;;;;;;;;4881236;29;20185;-73
2023/03/25 09:42:01;;;;;;;23.58;4.40;;;;;;;;;;4885713;29;20024;-72
2023/03/25 09:44:30;;;;;;;23.55;4.32;;;;;;;;;;4891417;29;20051;-73
2023/03/25 09:46:58;;;;;;;20.25;3.80;;;;;;;;;;4886955;29;20056;-75
2023/03/25 09:49:30;;;;;;;23.80;3.33;;;;;;;;;;4882680;29;20261;-75
2023/03/25 09:51:56;;;;;;;19.83;4.13;;;;;;;;;;4874596;29;20493;-74
2023/03/25 09:54:26;;;;;;;25.13;3.85;;;;;;;;;;4880129;29;20035;-73
2023/03/25 09:57:16;;;;;;;22.52;3.95;;;;;;;;;;4890397;29;20062;-74
2023/03/25 09:59:46;;;;;;;18.77;3.08;;;;;;;;;;4881308;29;20052;-76
2023/03/25 10:02:26;;;;;;;17.17;2.92;;;;;;;;;;4889342;29;20132;-73
2023/03/25 10:05:05;;;;;;;19.15;3.20;;;;;;;;;;4891060;29;20537;-77
2023/03/25 10:07:47;;;;;;;23.65;3.85;;;;;;;;;;4876332;29;20029;-75
2023/03/25 10:13:52;;;;;;;21.83;4.20;;;;;;;;;;4873442;29;20123;-74
2023/03/25 10:16:18;;;;;;;18.30;3.80;;;;;;;;;;4888090;29;20028;-74
2023/03/25 10:18:50;;;;;;;20.63;4.93;;;;;;;;;;4893667;29;20032;-73
2023/03/25 10:21:25;;;;;;;25.23;3.80;;;;;;;;;;4874848;29;20500;-75
2023/03/25 10:26:48;;;;;;;25.25;3.88;;;;;;;;;;4882345;29;20181;-73
2023/03/25 10:29:32;;;;;;;22.38;4.18;;;;;;;;;;4884635;29;21510;-75
2023/03/25 10:32:01;;;;;;;26.90;3.95;;;;;;;;;;4882777;29;20140;-73
2023/03/25 10:37:46;;;;;;;29.02;5.13;;;;;;;;;;4894464;29;20389;-74
2023/03/25 10:40:30;;;;;;;18.73;3.72;;;;;;;;;;4886167;29;20423;-74
2023/03/25 10:43:20;;;;;;;26.60;3.80;;;;;;;;;;4880353;29;20067;-73
2023/03/25 10:46:03;;;;;;;23.35;3.75;;;;;;;;;;4882644;29;20088;-74
2023/03/25 10:48:45;;;;;;;19.55;4.38;;;;;;;;;;4888796;29;20049;-74
2023/03/25 10:51:12;;;;;;;21.13;3.42;;;;;;;;;;4885370;29;20497;-76
2023/03/25 10:53:42;;;;;;;50.25;23.77;;;;;;;;;;4888328;29;20037;-75
2023/03/25 10:56:30;;;;;;;18.00;2.90;;;;;;;;;;4896374;29;20032;-76
2023/03/25 10:58:57;;;;;;;23.75;3.60;;;;;;;;;;4894964;29;20028;-75
2023/03/25 11:01:35;;;;;;;26.88;4.05;;;;;;;;;;4885263;29;20029;-74
2023/03/25 11:04:07;;;;;;;13.77;3.35;;;;;;;;;;4879185;29;20032;-76
2023/03/25 11:06:36;;;;;;;14.38;3.15;;;;;;;;;;4882024;29;20051;-76
2023/03/25 11:09:16;;;;;;;19.33;3.85;;;;;;;;;;4887621;29;20139;-79
2023/03/25 11:11:42;;;;;;;17.55;3.67;;;;;;;;;;4904980;29;20048;-77
2023/03/25 11:14:10;;;;;;;17.27;3.08;;;;;;;;;;4893664;29;20041;-77
2023/03/25 11:16:40;;;;;;;19.85;3.88;;;;;;;;;;4887477;29;20039;-76
2023/03/25 11:19:13;;;;;;;17.17;3.67;;;;;;;;;;4891065;29;20033;-76
2023/03/25 11:21:39;;;;;;;23.52;3.10;;;;;;;;;;4884483;29;20382;-75
2023/03/25 11:24:05;;;;;;;17.63;3.22;;;;;;;;;;4886034;29;20035;-75
2023/03/25 11:26:40;;;;;;;20.65;3.17;;;;;;;;;;4881251;29;20614;-74
2023/03/25 11:29:14;;;;;;;16.88;3.28;;;;;;;;;;4887784;29;20029;-76
2023/03/25 11:31:43;;;;;;;18.00;4.03;;;;;;;;;;4897488;29;20125;-75
2023/03/25 11:34:12;;;;;;;10.45;2.22;;;;;;;;;;4885293;29;20123;-77
2023/03/25 11:36:47;;;;;;;16.35;2.85;;;;;;;;;;4882374;29;20033;-74
2023/03/25 11:39:18;;;;;;;23.90;3.17;;;;;;;;;;4889878;29;20039;-75
2023/03/25 11:41:45;;;;;;;13.73;2.20;;;;;;;;;;4875651;29;20036;-74
2023/03/25 11:44:22;;;;;;;14.27;2.65;;;;;;;;;;4882202;29;20028;-75
2023/03/25 11:46:51;;;;;;;22.48;5.03;;;;;;;;;;4890233;29;20189;-75
2023/03/25 11:49:20;;;;;;;22.95;4.40;;;;;;;;;;4883890;29;20052;-75
2023/03/25 11:51:47;;;;;;;16.80;2.47;;;;;;;;;;4886427;29;20035;-75
2023/03/25 11:54:16;;;;;;;20.13;3.65;;;;;;;;;;4875279;29;20047;-75
2023/03/25 11:56:48;;;;;;;20.27;3.30;;;;;;;;;;4894249;29;20511;-74
2023/03/25 11:59:23;;;;;;;18.98;3.40;;;;;;;;;;4882738;29;20037;-73
2023/03/25 12:01:50;;;;;;;21.45;3.63;;;;;;;;;;4883734;29;20056;-74
2023/03/25 12:04:16;;;;;;;19.02;3.13;;;;;;;;;;4896100;29;20027;-74
2023/03/25 12:07:01;;;;;;;20.92;3.65;;;;;;;;;;4886669;29;20025;-74
2023/03/25 12:09:28;;;;;;;11.65;2.50;;;;;;;;;;4903571;29;20096;-74
2023/03/25 12:11:58;;;;;;;16.85;2.90;;;;;;;;;;4895180;29;20355;-76
2023/03/25 12:14:29;;;;;;;13.80;2.92;;;;;;;;;;4896225;29;20056;-74
2023/03/25 12:17:07;;;;;;;19.30;3.03;;;;;;;;;;4887208;29;20044;-75
2023/03/25 12:19:39;;;;;;;17.40;2.85;;;;;;;;;;4910382;29;20026;-75
2023/03/25 12:22:11;;;;;;;14.77;2.75;;;;;;;;;;4895152;29;20053;-76
2023/03/25 12:24:56;;;;;;;12.55;3.15;;;;;;;;;;4894500;29;20047;-74
2023/03/25 12:27:22;;;;;;;12.57;2.47;;;;;;;;;;4876829;29;20393;-74
2023/03/25 12:29:49;;;;;;;14.40;2.80;;;;;;;;;;4888985;29;20516;-75
2023/03/25 12:32:31;;;;;;;16.38;2.83;;;;;;;;;;4894789;29;20477;-74
2023/03/25 12:35:13;;;;;;;15.60;3.45;;;;;;;;;;4895123;29;20092;-74
2023/03/25 12:37:55;;;;;;;17.98;2.92;;;;;;;;;;4895770;29;20025;-75
2023/03/25 12:40:35;;;;;;;19.15;3.33;;;;;;;;;;4888570;29;20045;-74
2023/03/25 12:43:15;;;;;;;12.82;2.55;;;;;;;;;;4888293;29;20409;-74
2023/03/25 12:46:00;;;;;;;21.63;3.50;;;;;;;;;;4892211;29;20032;-75
2023/03/25 12:48:32;;;;;;;17.70;3.63;;;;;;;;;;4877114;29;20081;-74
2023/03/25 12:51:15;;;;;;;17.83;2.90;;;;;;;;;;4890070;29;20032;-73
2023/03/25 12:53:57;;;;;;;19.00;3.67;;;;;;;;;;4909477;29;20343;-75
2023/03/25 12:56:26;;;;;;;14.75;2.45;;;;;;;;;;4893029;29;21277;-74
2023/03/25 12:59:15;;;;;;;14.13;3.15;;;;;;;;;;4889435;29;20538;-74
2023/03/25 13:01:47;;;;;;;13.55;2.45;;;;;;;;;;4889514;29;20471;-74
2023/03/25 13:04:23;;;;;;;18.55;2.60;;;;;;;;;;4893363;29;20028;-74
2023/03/25 13:07:01;;;;;;;18.50;3.10;;;;;;;;;;4893596;29;20043;-74
2023/03/25 13:09:33;;;;;;;8.40;2.30;;;;;;;;;;4893038;29;20110;-75
2023/03/25 13:12:02;;;;;;;17.00;2.83;;;;;;;;;;4909896;29;20385;-75
2023/03/25 13:14:32;;;;;;;13.40;2.63;;;;;;;;;;4908091;29;20470;-74
2023/03/25 13:17:00;;;;;;;13.85;2.72;;;;;;;;;;4925526;29;20119;-74
2023/03/25 13:19:27;;;;;;;12.75;3.15;;;;;;;;;;4901600;29;20088;-73
2023/03/25 13:21:57;;;;;;;11.68;1.80;;;;;;;;;;4893738;29;20056;-74
2023/03/25 13:24:27;;;;;;;9.82;2.38;;;;;;;;;;4894374;29;20024;-73
2023/03/25 13:26:54;;;;;;;13.75;3.25;;;;;;;;;;4909957;29;20029;-74
2023/03/25 13:29:26;;;;;;;16.95;3.38;;;;;;;;;;4892066;29;20028;-73
2023/03/25 13:31:53;;;;;;;11.32;2.47;;;;;;;;;;4893261;29;20543;-73
2023/03/25 13:34:28;;;;;;;14.20;2.72;;;;;;;;;;4893653;29;20366;-73
2023/03/25 13:37:10;;;;;;;19.85;3.42;;;;;;;;;;4894687;29;20112;-73
2023/03/25 13:39:47;;;;;;;20.88;3.45;;;;;;;;;;4894769;29;20028;-73
2023/03/25 13:42:17;;;;;;;18.65;3.35;;;;;;;;;;4893627;29;20032;-73
2023/03/25 13:44:45;;;;;;;14.73;3.20;;;;;;;;;;4891772;29;20366;-73
2023/03/25 13:47:12;;;;;;;8.57;1.83;;;;;;;;;;4891818;29;20033;-74
2023/03/25 13:49:43;;;;;;;10.43;1.75;;;;;;;;;;4898678;29;20033;-73
2023/03/25 13:52:09;;;;;;;11.77;2.42;;;;;;;;;;4895566;29;20032;-74
2023/03/25 13:54:45;;;;;;;13.55;2.40;;;;;;;;;;4894709;29;20139;-73
2023/03/25 13:57:20;;;;;;;10.98;3.47;;;;;;;;;;4893770;29;20123;-74
2023/03/25 13:59:46;;;;;;;9.88;1.88;;;;;;;;;;4894512;29;20037;-73
2023/03/25 14:02:30;;;;;;;10.15;2.97;;;;;;;;;;4909576;29;20031;-74
2023/03/25 14:05:17;;;;;;;12.93;1.67;;;;;;;;;;4892856;29;20422;-74
2023/03/25 14:08:16;;;;;;;14.55;2.92;;;;;;;;;;4897664;29;20482;-74
2023/03/25 14:11:05;;;;;;;12.32;3.97;;;;;;;;;;4884423;29;20522;-74
2023/03/25 14:13:36;;;;;;;11.20;2.28;;;;;;;;;;4897711;29;20100;-73
2023/03/25 14:16:13;;;;;;;11.57;1.73;;;;;;;;;;4897901;29;20036;-73
2023/03/25 14:18:45;;;;;;;13.65;3.33;;;;;;;;;;4898021;29;20024;-73
2023/03/25 14:21:30;;;;;;;12.27;2.28;;;;;;;;;;4902071;29;20052;-74
2023/03/25 14:24:05;;;;;;;17.23;3.15;;;;;;;;;;4892550;29;20029;-73
2023/03/25 14:26:33;;;;;;;12.38;2.25;;;;;;;;;;4891810;29;20047;-73
2023/03/25 14:29:02;;;;;;;11.38;1.95;;;;;;;;;;4898244;29;20027;-73
2023/03/25 14:31:30;;;;;;;9.50;1.63;;;;;;;;;;4905384;29;20373;-73
2023/03/25 14:33:59;;;;;;;13.32;2.80;;;;;;;;;;4890994;29;20100;-73
2023/03/25 14:36:41;;;;;;;14.10;2.00;;;;;;;;;;4898067;29;20025;-72
2023/03/25 14:39:11;;;;;;;12.70;2.42;;;;;;;;;;4897724;29;20108;-74
2023/03/25 14:41:57;;;;;;;16.55;2.30;;;;;;;;;;4896048;29;20029;-73
2023/03/25 14:44:28;;;;;;;27.98;7.10;;;;;;;;;;4897890;29;20012;-73
2023/03/25 14:47:19;;;;;;;20.15;4.15;;;;;;;;;;4901388;29;20123;-74
2023/03/25 14:50:23;;;;;;;;;;;;;;;;;;;;;
2023/03/25 14:59:43;;;;;;;18.15;2.55;;;;;;;;;;4913225;29;20541;-74
2023/03/25 15:02:35;;;;;;;15.45;2.45;;;;;;;;;;4866807;29;20238;-74
2023/03/25 15:05:22;;;;;;;10.50;2.00;;;;;;;;;;4893455;29;20033;-74
2023/03/25 15:13:51;;;;;;;15.60;2.05;;;;;;;;;;4912270;29;20099;-73
2023/03/25 15:16:26;;;;;;;13.50;1.85;;;;;;;;;;4904388;29;20064;-72
2023/03/25 15:18:55;;;;;;;7.75;1.73;;;;;;;;;;4895074;29;20080;-73
2023/03/25 15:21:25;;;;;;;11.10;2.20;;;;;;;;;;4896673;29;20123;-73
2023/03/25 15:24:09;;;;;;;10.85;2.75;;;;;;;;;;4895272;29;20021;-72
2023/03/25 15:26:46;;;;;;;12.82;2.92;;;;;;;;;;4926988;29;20021;-72
2023/03/25 15:29:31;;;;;;;14.50;2.45;;;;;;;;;;4882126;29;20041;-72
2023/03/25 15:32:16;;;;;;;12.52;2.45;;;;;;;;;;4894625;29;20468;-73